createdAt,value
2022-11-17T00:00:23.992Z,22.36
2022-11-17T00:02:52.149Z,22.36
2022-11-17T00:05:21.196Z,22.33
2022-11-17T00:07:49.928Z,22.33
2022-11-17T00:10:19.560Z,22.33
2022-11-17T00:13:05.193Z,22.30
2022-11-17T00:15:33.223Z,22.26
2022-11-17T00:18:18.835Z,22.28
2022-11-17T00:21:04.102Z,22.24
2022-11-17T00:23:47.133Z,22.24
2022-11-17T00:26:18.139Z,22.25
2022-11-17T00:28:46.158Z,22.24
2022-11-17T00:31:32.025Z,22.23
2022-11-17T00:34:06.408Z,22.21
2022-11-17T00:36:37.456Z,22.11
2022-11-17T00:39:05.411Z,22.18
2022-11-17T00:41:34.706Z,22.18
2022-11-17T00:44:02.810Z,22.16
2022-11-17T00:46:30.840Z,22.16
2022-11-17T00:48:58.825Z,22.13
2022-11-17T00:51:26.985Z,22.13
2022-11-17T00:53:55.321Z,22.13
2022-11-17T00:56:23.792Z,22.11
2022-11-17T00:58:53.536Z,22.10
2022-11-17T01:01:21.608Z,22.07
2022-11-17T01:03:49.698Z,22.06
2022-11-17T01:06:20.272Z,22.06
2022-11-17T01:08:48.357Z,22.04
2022-11-17T01:11:18.912Z,21.89
2022-11-17T01:13:48.957Z,22.01
2022-11-17T01:16:20.224Z,22.01
2022-11-17T01:18:50.383Z,21.97
2022-11-17T01:21:21.536Z,21.96
2022-11-17T01:23:50.599Z,21.95
2022-11-17T01:26:20.609Z,21.86
2022-11-17T01:28:49.149Z,21.92
2022-11-17T01:31:20.539Z,21.93
2022-11-17T01:33:49.203Z,21.88
2022-11-17T01:36:19.132Z,21.91
2022-11-17T01:38:47.501Z,21.90
2022-11-17T01:41:17.109Z,21.87
2022-11-17T01:43:47.432Z,21.75
2022-11-17T01:46:33.395Z,21.86
2022-11-17T01:49:06.532Z,21.83
2022-11-17T01:51:38.800Z,21.83
2022-11-17T01:54:08.148Z,21.83
2022-11-17T01:56:40.237Z,21.81
2022-11-17T01:59:15.067Z,21.80
2022-11-17T02:01:56.598Z,21.79
2022-11-17T02:04:27.235Z,21.77
2022-11-17T02:07:02.206Z,21.76
2022-11-17T02:09:30.567Z,21.74
2022-11-17T02:12:00.043Z,21.73
2022-11-17T02:14:28.232Z,21.71
2022-11-17T02:17:00.989Z,21.71
2022-11-17T02:19:38.189Z,21.70
2022-11-17T02:22:33.597Z,21.69
2022-11-17T02:25:26.834Z,21.66
2022-11-17T02:28:07.790Z,21.62
2022-11-17T02:30:42.496Z,21.64
2022-11-17T02:33:18.687Z,21.63
2022-11-17T02:35:51.484Z,21.61
2022-11-17T02:38:28.590Z,21.61
2022-11-17T02:41:06.353Z,21.59
2022-11-17T02:43:59.567Z,21.56
2022-11-17T02:46:31.605Z,21.56
2022-11-17T02:49:03.143Z,21.54
2022-11-17T02:51:34.081Z,21.53
2022-11-17T02:54:03.309Z,21.47
2022-11-17T02:56:31.196Z,21.51
2022-11-17T02:59:02.816Z,21.51
2022-11-17T03:02:00.296Z,21.50
2022-11-17T03:04:33.031Z,21.48
2022-11-17T03:07:13.581Z,21.38
2022-11-17T03:09:50.449Z,21.47
2022-11-17T03:12:25.562Z,21.45
2022-11-17T03:15:03.260Z,21.45
2022-11-17T03:17:36.335Z,21.41
2022-11-17T03:20:09.395Z,21.29
2022-11-17T03:22:44.995Z,21.43
2022-11-17T03:25:18.390Z,21.42
2022-11-17T03:27:49.520Z,21.41
2022-11-17T03:30:20.871Z,21.40
2022-11-17T03:32:53.396Z,21.40
2022-11-17T03:35:25.675Z,21.40
2022-11-17T03:37:57.628Z,21.39
2022-11-17T03:40:29.106Z,21.39
2022-11-17T03:43:00.808Z,21.38
2022-11-17T03:45:33.034Z,21.35
2022-11-17T03:48:08.246Z,21.34
2022-11-17T03:50:39.021Z,21.36
2022-11-17T03:53:07.887Z,21.21
2022-11-17T03:55:42.859Z,21.28
2022-11-17T03:58:16.513Z,21.34
2022-11-17T04:00:47.696Z,21.33
2022-11-17T04:03:16.356Z,21.30
2022-11-17T04:05:44.676Z,21.31
2022-11-17T04:08:12.660Z,21.30
2022-11-17T04:10:54.394Z,21.31
2022-11-17T04:13:41.724Z,21.30
2022-11-17T04:16:11.104Z,21.29
2022-11-17T04:18:39.100Z,21.29
2022-11-17T04:21:07.252Z,21.30
2022-11-17T04:23:35.414Z,21.29
2022-11-17T04:26:20.982Z,21.30
2022-11-17T04:28:50.909Z,21.29
2022-11-17T04:31:22.688Z,21.28
2022-11-17T04:33:52.619Z,21.24
2022-11-17T04:36:22.615Z,21.30
2022-11-17T04:38:52.634Z,21.20
2022-11-17T04:41:51.009Z,21.30
2022-11-17T04:44:19.183Z,21.28
2022-11-17T04:46:48.779Z,21.29
2022-11-17T04:49:18.479Z,21.29
2022-11-17T04:51:46.947Z,21.29
2022-11-17T04:54:17.052Z,21.27
2022-11-17T04:56:45.319Z,21.28
2022-11-17T04:59:13.502Z,21.14
2022-11-17T05:01:41.936Z,21.28
2022-11-17T05:04:12.900Z,21.25
2022-11-17T05:06:42.585Z,21.17
2022-11-17T05:09:12.815Z,21.28
2022-11-17T05:11:58.704Z,21.27
2022-11-17T05:14:28.241Z,21.17
2022-11-17T05:17:11.580Z,21.26
2022-11-17T05:19:44.198Z,21.24
2022-11-17T05:22:30.856Z,21.25
2022-11-17T05:24:58.862Z,21.23
2022-11-17T05:27:27.386Z,21.24
2022-11-17T05:29:55.332Z,21.26
2022-11-17T05:32:23.273Z,21.27
2022-11-17T05:34:52.624Z,21.26
2022-11-17T05:37:20.492Z,21.25
2022-11-17T05:39:48.408Z,21.24
2022-11-17T05:42:16.407Z,21.24
2022-11-17T05:44:44.284Z,21.23
2022-11-17T05:47:12.154Z,21.22
2022-11-17T05:49:40.090Z,21.22
2022-11-17T05:52:09.539Z,21.12
2022-11-17T05:54:37.465Z,21.22
2022-11-17T05:57:12.686Z,21.23
2022-11-17T05:59:45.317Z,21.19
2022-11-17T06:02:17.301Z,21.22
2022-11-17T06:04:46.364Z,21.21
2022-11-17T06:07:17.762Z,21.22
2022-11-17T06:09:47.579Z,21.21
2022-11-17T06:12:15.752Z,21.20
2022-11-17T06:14:43.756Z,21.20
2022-11-17T06:17:21.763Z,21.18
2022-11-17T06:19:56.531Z,21.18
2022-11-17T06:22:27.703Z,21.16
2022-11-17T06:24:56.464Z,21.16
2022-11-17T06:27:25.649Z,21.16
2022-11-17T06:29:54.915Z,21.15
2022-11-17T06:32:23.257Z,21.15
2022-11-17T06:34:56.022Z,21.15
2022-11-17T06:37:26.332Z,21.14
2022-11-17T06:39:54.564Z,21.14
2022-11-17T06:42:42.937Z,21.13
2022-11-17T06:45:12.288Z,21.13
2022-11-17T06:47:40.561Z,21.12
2022-11-17T06:50:09.074Z,21.13
2022-11-17T06:52:38.493Z,21.12
2022-11-17T06:55:07.453Z,21.10
2022-11-17T06:57:35.419Z,21.06
2022-11-17T07:00:03.985Z,21.11
2022-11-17T07:02:32.765Z,21.10
2022-11-17T07:05:00.779Z,21.10
2022-11-17T07:07:28.754Z,21.09
2022-11-17T07:09:58.098Z,21.11
2022-11-17T07:12:26.096Z,21.08
2022-11-17T07:14:54.017Z,21.08
2022-11-17T07:17:21.992Z,21.08
2022-11-17T07:19:49.919Z,21.01
2022-11-17T07:22:17.830Z,21.10
2022-11-17T07:24:45.968Z,21.10
2022-11-17T07:27:15.271Z,21.08
2022-11-17T07:29:43.221Z,21.09
2022-11-17T07:32:13.779Z,21.10
2022-11-17T07:34:42.622Z,21.08
2022-11-17T07:37:10.530Z,21.10
2022-11-17T07:39:38.441Z,21.09
2022-11-17T07:42:06.383Z,21.01
2022-11-17T07:44:36.013Z,21.10
2022-11-17T07:47:03.963Z,21.09
2022-11-17T07:49:31.878Z,21.09
2022-11-17T07:51:59.867Z,21.09
2022-11-17T07:54:27.827Z,21.11
2022-11-17T07:56:55.718Z,21.10
2022-11-17T07:59:23.647Z,21.11
2022-11-17T08:01:52.963Z,21.10
2022-11-17T08:04:20.884Z,21.11
2022-11-17T08:06:48.892Z,21.11
2022-11-17T08:09:17.339Z,21.12
2022-11-17T08:11:45.391Z,21.13
2022-11-17T08:14:13.329Z,21.16
2022-11-17T08:16:41.235Z,21.18
2022-11-17T08:19:12.033Z,21.20
2022-11-17T08:21:41.129Z,21.20
2022-11-17T08:24:09.431Z,21.12
2022-11-17T08:26:37.381Z,21.14
2022-11-17T08:29:05.302Z,21.22
2022-11-17T08:31:33.967Z,21.21
2022-11-17T08:34:01.862Z,21.22
2022-11-17T08:36:31.615Z,21.24
2022-11-17T08:38:59.545Z,21.24
2022-11-17T08:41:27.525Z,21.26
2022-11-17T08:43:55.538Z,21.21
2022-11-17T08:46:23.512Z,21.28
2022-11-17T08:48:56.847Z,21.28
2022-11-17T08:51:25.261Z,21.28
2022-11-17T08:53:54.523Z,21.34
2022-11-17T08:56:22.753Z,21.33
2022-11-17T08:58:50.695Z,21.32
2022-11-17T09:01:18.826Z,21.35
2022-11-17T09:03:49.795Z,21.36
2022-11-17T09:06:20.060Z,21.37
2022-11-17T09:08:48.740Z,21.37
2022-11-17T09:11:18.264Z,21.39
2022-11-17T09:13:47.079Z,21.39
2022-11-17T09:16:15.782Z,21.39
2022-11-17T09:18:44.177Z,21.38
2022-11-17T09:21:15.275Z,21.40
2022-11-17T09:23:43.928Z,21.39
2022-11-17T09:26:14.177Z,21.40
2022-11-17T09:28:44.202Z,21.42
2022-11-17T09:31:14.275Z,21.41
2022-11-17T09:33:43.100Z,21.42
2022-11-17T09:36:12.678Z,21.42
2022-11-17T09:38:41.194Z,21.41
2022-11-17T09:41:27.647Z,21.42
2022-11-17T09:44:07.631Z,21.42
2022-11-17T09:46:47.421Z,21.32
2022-11-17T09:49:25.370Z,21.41
2022-11-17T09:51:55.745Z,21.41
2022-11-17T09:54:31.329Z,21.41
2022-11-17T09:57:00.420Z,21.40
2022-11-17T09:59:33.269Z,21.41
2022-11-17T10:02:01.225Z,21.37
2022-11-17T10:04:30.675Z,21.41
2022-11-17T10:06:59.542Z,21.29
2022-11-17T10:09:36.182Z,21.42
2022-11-17T10:12:16.418Z,21.41
2022-11-17T10:14:47.271Z,21.40
2022-11-17T10:17:15.206Z,21.30
2022-11-17T10:19:45.282Z,21.42
2022-11-17T10:22:33.507Z,21.41
2022-11-17T10:25:01.427Z,21.38
2022-11-17T10:27:30.953Z,21.38
2022-11-17T10:30:07.068Z,21.34
2022-11-17T10:32:37.931Z,21.38
2022-11-17T10:35:16.614Z,21.38
2022-11-17T10:37:52.442Z,21.35
2022-11-17T10:40:25.669Z,21.36
2022-11-17T10:43:17.769Z,21.39
2022-11-17T10:45:47.821Z,21.38
2022-11-17T10:48:25.436Z,21.24
2022-11-17T10:50:55.708Z,21.39
2022-11-17T10:53:30.057Z,21.41
2022-11-17T10:56:03.040Z,21.40
2022-11-17T10:58:33.151Z,21.24
2022-11-17T11:01:04.975Z,21.39
2022-11-17T11:03:35.448Z,21.28
2022-11-17T11:06:06.598Z,21.29
2022-11-17T11:08:47.106Z,21.35
2022-11-17T11:11:33.308Z,21.35
2022-11-17T11:14:13.275Z,21.33
2022-11-17T11:16:48.036Z,21.33
2022-11-17T11:19:18.233Z,21.32
2022-11-17T11:22:09.681Z,21.31
2022-11-17T11:24:45.843Z,21.28
2022-11-17T11:27:28.644Z,21.28
2022-11-17T11:30:03.180Z,21.28
2022-11-17T11:32:42.051Z,21.29
2022-11-17T11:35:34.486Z,21.27
2022-11-17T11:38:24.953Z,21.26
2022-11-17T11:41:06.373Z,21.23
2022-11-17T11:43:45.533Z,21.12
2022-11-17T11:46:18.899Z,21.22
2022-11-17T11:48:50.798Z,21.21
2022-11-17T11:51:20.812Z,21.17
2022-11-17T11:53:52.484Z,21.18
2022-11-17T11:56:26.134Z,21.16
2022-11-17T11:59:01.739Z,21.15
2022-11-17T12:01:33.235Z,21.13
2022-11-17T12:04:15.290Z,21.13
2022-11-17T12:06:53.892Z,21.10
2022-11-17T12:09:45.822Z,21.10
2022-11-17T12:12:17.938Z,21.08
2022-11-17T12:15:12.013Z,21.06
2022-11-17T12:17:58.006Z,21.05
2022-11-17T12:20:55.229Z,21.03
2022-11-17T12:23:54.416Z,21.02
2022-11-17T12:26:26.009Z,20.99
2022-11-17T12:29:34.022Z,20.99
2022-11-17T12:32:03.179Z,20.97
2022-11-17T12:34:36.865Z,21.00
2022-11-17T12:37:19.701Z,21.03
2022-11-17T12:39:56.393Z,21.02
2022-11-17T12:42:24.889Z,21.08
2022-11-17T12:45:12.402Z,21.11
2022-11-17T12:47:41.913Z,21.12
2022-11-17T12:50:35.772Z,21.16
2022-11-17T12:53:24.710Z,21.19
2022-11-17T12:56:30.929Z,21.22
2022-11-17T12:59:18.835Z,21.22
2022-11-17T13:01:56.898Z,21.25
2022-11-17T13:04:35.331Z,21.28
2022-11-17T13:07:05.317Z,21.29
2022-11-17T13:09:36.424Z,21.31
2022-11-17T13:12:06.059Z,21.33
2022-11-17T13:14:34.788Z,21.34
2022-11-17T13:17:03.502Z,21.36
2022-11-17T13:19:34.713Z,21.38
2022-11-17T13:22:05.710Z,21.38
2022-11-17T13:24:36.809Z,21.38
2022-11-17T13:27:08.562Z,21.26
2022-11-17T13:29:36.774Z,21.31
2022-11-17T13:32:16.955Z,21.42
2022-11-17T13:34:50.107Z,21.42
2022-11-17T13:37:20.672Z,21.43
2022-11-17T13:40:20.906Z,21.45
2022-11-17T13:42:49.601Z,21.44
2022-11-17T13:45:18.058Z,21.44
2022-11-17T13:47:48.090Z,21.44
2022-11-17T13:50:34.563Z,21.45
2022-11-17T13:53:06.324Z,21.44
2022-11-17T13:55:36.465Z,21.44
2022-11-17T13:58:06.685Z,21.44
2022-11-17T14:00:35.588Z,21.44
2022-11-17T14:03:06.044Z,21.46
2022-11-17T14:05:34.782Z,21.47
2022-11-17T14:08:13.238Z,21.48
2022-11-17T14:10:42.762Z,21.43
2022-11-17T14:13:23.339Z,21.42
2022-11-17T14:15:57.014Z,21.43
2022-11-17T14:18:29.609Z,21.42
2022-11-17T14:21:09.483Z,21.46
2022-11-17T14:23:37.509Z,21.40
2022-11-17T14:26:07.533Z,21.24
2022-11-17T14:28:35.534Z,21.42
2022-11-17T14:31:03.420Z,21.44
2022-11-17T14:33:31.417Z,21.44
2022-11-17T14:36:00.741Z,21.32
2022-11-17T14:38:28.939Z,21.47
2022-11-17T14:40:56.814Z,21.36
2022-11-17T14:43:26.206Z,21.49
2022-11-17T14:45:54.119Z,21.51
2022-11-17T14:48:22.467Z,21.52
2022-11-17T14:50:57.116Z,21.54
2022-11-17T14:53:25.603Z,21.50
2022-11-17T14:55:53.812Z,21.50
2022-11-17T14:58:21.783Z,21.49
2022-11-17T15:00:51.242Z,21.50
2022-11-17T15:03:19.233Z,21.48
2022-11-17T15:05:47.360Z,21.49
2022-11-17T15:08:15.394Z,21.48
2022-11-17T15:10:46.880Z,21.50
2022-11-17T15:13:14.771Z,21.48
2022-11-17T15:15:42.728Z,21.46
2022-11-17T15:18:12.719Z,21.48
2022-11-17T15:20:40.635Z,21.48
2022-11-17T15:23:08.613Z,21.47
2022-11-17T15:25:39.416Z,21.50
2022-11-17T15:28:07.348Z,21.47
2022-11-17T15:30:35.286Z,21.47
2022-11-17T15:33:03.182Z,21.44
2022-11-17T15:35:32.557Z,21.45
2022-11-17T15:38:00.435Z,21.40
2022-11-17T15:40:28.287Z,21.41
2022-11-17T15:42:56.177Z,21.42
2022-11-17T15:45:24.107Z,21.41
2022-11-17T15:47:51.967Z,21.41
2022-11-17T15:50:20.448Z,21.36
2022-11-17T15:53:03.418Z,21.39
2022-11-17T15:55:32.241Z,21.37
2022-11-17T15:58:00.120Z,21.38
2022-11-17T16:00:28.032Z,21.36
2022-11-17T16:02:58.739Z,21.39
2022-11-17T16:05:26.947Z,21.38
2022-11-17T16:07:56.229Z,21.39
2022-11-17T16:10:24.117Z,21.38
2022-11-17T16:12:52.025Z,21.40
2022-11-17T16:15:19.969Z,21.38
2022-11-17T16:17:47.833Z,21.40
2022-11-17T16:20:16.168Z,21.39
2022-11-17T16:22:44.108Z,21.41
2022-11-17T16:25:13.618Z,21.41
2022-11-17T16:27:41.501Z,21.42
2022-11-17T16:30:10.117Z,21.43
2022-11-17T16:32:37.978Z,21.43
2022-11-17T16:35:06.550Z,21.42
2022-11-17T16:37:35.442Z,21.30
2022-11-17T16:40:04.584Z,21.38
2022-11-17T16:42:33.923Z,21.36
2022-11-17T16:45:01.882Z,21.35
2022-11-17T16:47:29.839Z,21.35
2022-11-17T16:49:57.884Z,21.35
2022-11-17T16:52:26.282Z,21.32
2022-11-17T16:54:54.194Z,21.28
2022-11-17T16:57:22.171Z,21.29
2022-11-17T16:59:51.473Z,21.29
2022-11-17T17:02:19.597Z,21.29
2022-11-17T17:04:47.533Z,21.24
2022-11-17T17:07:15.623Z,21.26
2022-11-17T17:09:43.548Z,21.26
2022-11-17T17:12:11.511Z,21.26
2022-11-17T17:14:39.379Z,21.19
2022-11-17T17:17:08.674Z,21.25
2022-11-17T17:19:36.573Z,21.23
2022-11-17T17:22:04.716Z,21.23
2022-11-17T17:24:32.744Z,21.22
2022-11-17T17:27:00.646Z,21.23
2022-11-17T17:29:28.611Z,21.24
2022-11-17T17:31:56.515Z,21.24
2022-11-17T17:34:25.854Z,21.22
2022-11-17T17:36:53.777Z,21.20
2022-11-17T17:39:21.745Z,21.17
2022-11-17T17:41:49.907Z,21.20
2022-11-17T17:44:19.777Z,21.21
2022-11-17T17:46:48.721Z,21.22
2022-11-17T17:49:18.824Z,21.22
2022-11-17T17:51:48.645Z,21.19
2022-11-17T17:54:18.183Z,21.25
2022-11-17T17:56:46.446Z,21.22
2022-11-17T17:59:15.925Z,21.22
2022-11-17T18:01:46.099Z,21.23
2022-11-17T18:04:16.336Z,21.23
2022-11-17T18:06:47.505Z,21.25
2022-11-17T18:09:19.816Z,21.19
2022-11-17T18:11:50.018Z,21.22
2022-11-17T18:14:20.563Z,21.22
2022-11-17T18:16:48.558Z,21.22
2022-11-17T18:19:17.110Z,21.22
2022-11-17T18:21:45.673Z,21.22
2022-11-17T18:24:14.233Z,21.22
2022-11-17T18:26:43.828Z,21.22
2022-11-17T18:29:16.251Z,21.23
2022-11-17T18:31:46.645Z,21.21
2022-11-17T18:34:17.199Z,21.21
2022-11-17T18:36:45.157Z,21.20
2022-11-17T18:39:13.145Z,21.21
2022-11-17T18:41:41.184Z,21.19
2022-11-17T18:44:13.122Z,21.20
2022-11-17T18:46:41.125Z,21.20
2022-11-17T18:49:09.271Z,21.20
2022-11-17T18:51:37.193Z,21.20
2022-11-17T18:54:05.601Z,21.04
2022-11-17T18:56:35.360Z,21.21
2022-11-17T18:59:03.608Z,21.19
2022-11-17T19:01:33.045Z,21.10
2022-11-17T19:04:01.878Z,21.18
2022-11-17T19:06:30.769Z,21.19
2022-11-17T19:08:59.624Z,21.19
2022-11-17T19:11:28.694Z,21.20
2022-11-17T19:13:56.591Z,21.20
2022-11-17T19:16:25.887Z,21.19
2022-11-17T19:18:57.127Z,21.22
2022-11-17T19:21:27.185Z,21.18
2022-11-17T19:23:57.721Z,21.20
2022-11-17T19:26:27.093Z,21.12
2022-11-17T19:28:56.745Z,21.19
2022-11-17T19:31:25.266Z,21.18
2022-11-17T19:33:55.377Z,21.18
2022-11-17T19:36:25.667Z,21.21
2022-11-17T19:38:55.221Z,21.20
2022-11-17T19:41:24.853Z,21.22
2022-11-17T19:43:53.530Z,21.20
2022-11-17T19:46:21.733Z,21.22
2022-11-17T19:48:49.843Z,21.22
2022-11-17T19:51:20.817Z,21.23
2022-11-17T19:53:49.514Z,21.22
2022-11-17T19:56:17.913Z,21.22
2022-11-17T19:58:46.682Z,21.21
2022-11-17T20:01:16.781Z,21.24
2022-11-17T20:03:45.104Z,21.23
2022-11-17T20:06:15.878Z,21.26
2022-11-17T20:08:45.670Z,21.24
2022-11-17T20:11:16.479Z,21.26
2022-11-17T20:13:44.932Z,21.25
2022-11-17T20:16:15.056Z,21.26
2022-11-17T20:18:43.998Z,21.25
2022-11-17T20:21:14.353Z,21.26
2022-11-17T20:23:43.465Z,21.25
2022-11-17T20:26:14.847Z,21.27
2022-11-17T20:28:43.069Z,21.26
2022-11-17T20:31:12.593Z,21.24
2022-11-17T20:33:42.114Z,21.24
2022-11-17T20:36:12.626Z,21.24
2022-11-17T20:38:40.804Z,21.23
2022-11-17T20:41:09.505Z,21.12
2022-11-17T20:43:39.122Z,21.26
2022-11-17T20:46:07.352Z,21.24
2022-11-17T20:48:36.095Z,21.25
2022-11-17T20:51:05.880Z,21.26
2022-11-17T20:53:34.716Z,21.27
2022-11-17T20:56:06.050Z,21.26
2022-11-17T20:58:34.860Z,21.27
2022-11-17T21:01:09.577Z,21.28
2022-11-17T21:03:37.834Z,21.26
2022-11-17T21:06:06.556Z,21.27
2022-11-17T21:08:36.714Z,21.25
2022-11-17T21:11:06.574Z,21.23
2022-11-17T21:13:36.135Z,21.24
2022-11-17T21:16:06.331Z,21.25
2022-11-17T21:18:36.539Z,21.27
2022-11-17T21:21:08.926Z,21.15
2022-11-17T21:23:37.692Z,21.26
2022-11-17T21:26:06.869Z,21.26
2022-11-17T21:28:35.055Z,21.26
2022-11-17T21:31:10.197Z,21.24
2022-11-17T21:33:40.029Z,21.27
2022-11-17T21:36:10.195Z,21.28
2022-11-17T21:38:38.847Z,21.26
2022-11-17T21:41:08.217Z,21.16
2022-11-17T21:43:37.347Z,21.29
2022-11-17T21:46:07.286Z,21.29
2022-11-17T21:48:36.706Z,21.25
2022-11-17T21:51:07.148Z,21.30
2022-11-17T21:53:35.095Z,21.26
2022-11-17T21:56:03.783Z,21.28
2022-11-17T21:58:32.012Z,21.27
2022-11-17T22:01:00.281Z,21.18
2022-11-17T22:03:28.264Z,21.27
2022-11-17T22:06:02.099Z,21.30
2022-11-17T22:08:31.755Z,21.31
2022-11-17T22:11:04.179Z,21.30
2022-11-17T22:13:32.137Z,21.29
2022-11-17T22:16:04.514Z,21.30
2022-11-17T22:18:32.558Z,21.27
2022-11-17T22:21:00.536Z,21.27
2022-11-17T22:23:29.193Z,21.26
2022-11-17T22:26:00.511Z,21.26
2022-11-17T22:28:28.922Z,21.25
2022-11-17T22:30:57.397Z,21.24
2022-11-17T22:33:25.581Z,21.24
2022-11-17T22:35:53.621Z,21.22
2022-11-17T22:38:21.559Z,21.05
2022-11-17T22:40:49.648Z,21.21
2022-11-17T22:43:18.975Z,21.21
2022-11-17T22:45:46.880Z,21.20
2022-11-17T22:48:14.847Z,21.20
2022-11-17T22:50:42.835Z,21.19
2022-11-17T22:53:10.762Z,21.18
2022-11-17T22:55:38.667Z,21.17
2022-11-17T22:58:06.668Z,21.15
2022-11-17T23:00:35.918Z,21.16
2022-11-17T23:03:03.905Z,21.15
2022-11-17T23:05:32.522Z,21.13
2022-11-17T23:08:04.101Z,21.11
2022-11-17T23:10:34.686Z,21.13
2022-11-17T23:13:02.702Z,21.12
2022-11-17T23:15:32.050Z,21.12
2022-11-17T23:18:01.317Z,21.12
2022-11-17T23:20:29.226Z,21.11
2022-11-17T23:22:57.200Z,21.11
2022-11-17T23:25:25.128Z,21.11
2022-11-17T23:27:53.101Z,21.11
2022-11-17T23:30:21.244Z,21.09
2022-11-17T23:32:49.124Z,21.08
2022-11-17T23:35:18.488Z,21.10
2022-11-17T23:37:46.365Z,21.08
2022-11-17T23:40:14.520Z,21.11
2022-11-17T23:42:43.396Z,21.08
2022-11-17T23:45:12.798Z,21.10
2022-11-17T23:47:40.703Z,21.10
2022-11-17T23:50:09.583Z,21.09
2022-11-17T23:52:38.834Z,21.11
2022-11-17T23:55:08.574Z,21.04
2022-11-17T23:57:36.454Z,21.09
